Time;durP1;ratioP1;P1;durP2;ratioP2;P2;SDS_P1;SDS_P2;PMS_P1;PMS_P2;Temp;Humidity;BMP_temperature;BMP_pressure;BME280_temperature;BME280_humidity;BME280_pressure;Samples;Min_cycle;Max_cycle;Signal;HPM_P1;HPM_P2
2022/04/25 00:01:31;;;;;;;;;;;;;;;;;;5118508;27;19968;-72
2022/04/25 00:03:56;;;;;;;;;;;;;;;;;;5136567;27;19911;-72
2022/04/25 00:06:22;;;;;;;;;;;;;;;;;;5136696;27;19911;-72
2022/04/25 00:08:47;;;;;;;;;;;;;;;;;;5118393;27;20018;-72
2022/04/25 00:11:12;;;;;;;;;;;;;;;;;;5118403;27;19974;-76
2022/04/25 00:13:42;;;;;;;;;;;;;;;;;;5136466;27;19911;-74
2022/04/25 00:16:08;;;;;;;;;;;;;;;;;;5101757;27;20251;-74
2022/04/25 00:18:33;;;;;;;;;;;;;;;;;;5136424;27;19915;-74
2022/04/25 00:21:00;;;;;;;;;;;;;;;;;;5136646;27;19916;-75
2022/04/25 00:23:25;;;;;;;;;;;;;;;;;;5119181;27;19911;-76
2022/04/25 00:25:50;;;;;;;;;;;;;;;;;;5136342;27;19923;-76
2022/04/25 00:28:18;;;;;;;;;;;;;;;;;;5136603;27;19919;-76
2022/04/25 00:30:49;;;;;;;;;;;;;;;;;;5136240;27;20336;-75
2022/04/25 00:33:15;;;;;;;;;;;;;;;;;;5118807;28;19947;-74
2022/04/25 00:35:42;;;;;;;;;;;;;;;;;;5136370;27;19916;-76
2022/04/25 00:38:11;;;;;;;;;;;;;;;;;;5136142;27;20260;-75
2022/04/25 00:40:36;;;;;;;;;;;;;;;;;;5118521;28;20052;-75
2022/04/25 00:43:01;;;;;;;;;;;;;;;;;;5136268;28;20006;-74
2022/04/25 00:45:27;;;;;;;;;;;;;;;;;;5136059;28;19919;-74
2022/04/25 00:47:52;;;;;;;;;;;;;;;;;;5118800;28;19919;-73
2022/04/25 00:50:17;;;;;;;;;;;;;;;;;;5139568;27;19911;-73
2022/04/25 00:52:43;;;;;;;;;;;;;;;;;;5122585;27;19911;-74
2022/04/25 00:55:11;;;;;;;;;;;;;;;;;;5122323;27;20365;-75
2022/04/25 00:57:36;;;;;;;;;;;;;;;;;;5122075;27;19911;-76
2022/04/25 01:00:03;;;;;;;;;;;;;;;;;;5140819;27;20343;-74
2022/04/25 01:02:28;;;;;;;;;;;;;;;;;;5140734;27;20043;-74
2022/04/25 01:04:54;;;;;;;;;;;;;;;;;;5140202;27;19931;-75
2022/04/25 01:07:19;;;;;;;;;;;;;;;;;;5122316;27;19976;-76
2022/04/25 01:09:44;;;;;;;;;;;;;;;;;;5139873;27;20082;-75
2022/04/25 01:12:10;;;;;;;;;;;;;;;;;;5122127;27;19926;-75
2022/04/25 01:14:35;;;;;;;;;;;;;;;;;;5140241;27;19919;-76
2022/04/25 01:17:00;;;;;;;;;;;;;;;;;;5139828;27;19912;-76
2022/04/25 01:19:26;;;;;;;;;;;;;;;;;;5121845;27;20264;-77
2022/04/25 01:21:52;;;;;;;;;;;;;;;;;;5121661;27;20259;-76
2022/04/25 01:27:25;;;;;;;;;;;;;;;;;;5139984;27;19975;-75
2022/04/25 01:29:52;;;;;;;;;;;;;;;;;;5139776;27;19919;-76
2022/04/25 01:32:17;;;;;;;;;;;;;;;;;;5121409;27;19912;-75
2022/04/25 01:34:42;;;;;;;;;;;;;;;;;;5139405;27;20267;-75
2022/04/25 01:37:08;;;;;;;;;;;;;;;;;;5105319;27;19912;-75
2022/04/25 01:39:34;;;;;;;;;;;;;;;;;;5139459;27;19911;-74
2022/04/25 01:41:59;;;;;;;;;;;;;;;;;;5139203;27;20344;-74
2022/04/25 01:44:24;;;;;;;;;;;;;;;;;;5139268;27;19987;-74
2022/04/25 01:46:50;;;;;;;;;;;;;;;;;;5139292;27;20309;-74
2022/04/25 01:49:17;;;;;;;;;;;;;;;;;;5121184;27;20006;-74
2022/04/25 01:51:43;;;;;;;;;;;;;;;;;;5139726;27;20281;-75
2022/04/25 01:54:08;;;;;;;;;;;;;;;;;;5139024;27;19919;-74
2022/04/25 01:56:35;;;;;;;;;;;;;;;;;;5139295;27;19911;-75
2022/04/25 01:59:03;;;;;;;;;;;;;;;;;;5139002;27;20009;-75
2022/04/25 02:01:28;;;;;;;;;;;;;;;;;;5119598;27;20007;-75
2022/04/25 02:03:53;;;;;;;;;;;;;;;;;;5138932;27;19912;-74
2022/04/25 02:06:21;;;;;;;;;;;;;;;;;;5138675;27;19976;-74
2022/04/25 02:08:46;;;;;;;;;;;;;;;;;;5139151;27;20007;-74
2022/04/25 02:11:21;;;;;;;;;;;;;;;;;;5121021;27;19951;-73
2022/04/25 02:13:50;;;;;;;;;;;;;;;;;;5138920;27;20362;-74
2022/04/25 02:16:16;;;;;;;;;;;;;;;;;;5138976;27;19927;-75
2022/04/25 02:18:41;;;;;;;;;;;;;;;;;;5139049;27;20358;-76
2022/04/25 02:21:06;;;;;;;;;;;;;;;;;;5138642;27;20313;-76
2022/04/25 02:23:31;;;;;;;;;;;;;;;;;;5139225;27;19922;-76
2022/04/25 02:25:59;;;;;;;;;;;;;;;;;;5139382;27;20282;-76
2022/04/25 02:28:24;;;;;;;;;;;;;;;;;;5138802;27;19912;-75
2022/04/25 02:30:52;;;;;;;;;;;;;;;;;;5120514;27;19978;-75
2022/04/25 02:33:18;;;;;;;;;;;;;;;;;;5138610;27;19912;-75
2022/04/25 02:35:46;;;;;;;;;;;;;;;;;;5120383;27;19964;-74
2022/04/25 02:38:15;;;;;;;;;;;;;;;;;;5138910;27;19915;-74
2022/04/25 02:40:41;;;;;;;;;;;;;;;;;;5138578;27;19968;-75
2022/04/25 02:43:06;;;;;;;;;;;;;;;;;;5138274;27;20309;-74
2022/04/25 02:45:31;;;;;;;;;;;;;;;;;;5120190;27;20337;-75
2022/04/25 02:47:56;;;;;;;;;;;;;;;;;;5138484;27;20382;-74
2022/04/25 02:50:21;;;;;;;;;;;;;;;;;;5120077;27;19923;-75
2022/04/25 02:52:47;;;;;;;;;;;;;;;;;;5138578;27;19922;-75
2022/04/25 02:55:12;;;;;;;;;;;;;;;;;;5139052;27;19911;-74
2022/04/25 02:57:37;;;;;;;;;;;;;;;;;;5119648;27;19998;-75
2022/04/25 03:00:06;;;;;;;;;;;;;;;;;;5102921;27;20440;-75
2022/04/25 03:02:31;;;;;;;;;;;;;;;;;;5137964;27;20328;-74
2022/04/25 03:04:56;;;;;;;;;;;;;;;;;;5119496;27;19975;-75
2022/04/25 03:07:21;;;;;;;;;;;;;;;;;;5137909;27;20361;-75
2022/04/25 03:09:46;;;;;;;;;;;;;;;;;;5119824;27;20354;-75
2022/04/25 03:12:12;;;;;;;;;;;;;;;;;;5137302;27;19912;-75
2022/04/25 03:14:37;;;;;;;;;;;;;;;;;;5137879;27;19961;-75
2022/04/25 03:17:02;;;;;;;;;;;;;;;;;;5137720;27;19911;-74
2022/04/25 03:19:27;;;;;;;;;;;;;;;;;;5137498;27;19915;-74
2022/04/25 03:21:53;;;;;;;;;;;;;;;;;;5137810;27;19958;-75
2022/04/25 03:24:18;;;;;;;;;;;;;;;;;;5137629;27;19924;-75
2022/04/25 03:26:46;;;;;;;;;;;;;;;;;;5137304;27;19964;-75
2022/04/25 03:29:13;;;;;;;;;;;;;;;;;;5137290;27;19911;-74
2022/04/25 03:31:41;;;;;;;;;;;;;;;;;;5137187;27;19911;-74
2022/04/25 03:34:08;;;;;;;;;;;;;;;;;;5137479;27;19919;-74
2022/04/25 03:36:35;;;;;;;;;;;;;;;;;;5137247;27;19958;-73
2022/04/25 03:39:00;;;;;;;;;;;;;;;;;;5137658;27;19908;-74
2022/04/25 03:41:30;;;;;;;;;;;;;;;;;;5137259;27;19916;-74
2022/04/25 03:43:55;;;;;;;;;;;;;;;;;;5137201;27;19939;-74
2022/04/25 03:46:20;;;;;;;;;;;;;;;;;;5119063;27;20344;-73
2022/04/25 03:48:45;;;;;;;;;;;;;;;;;;5137225;27;19915;-73
2022/04/25 03:51:10;;;;;;;;;;;;;;;;;;5136882;27;19971;-72
2022/04/25 03:53:38;;;;;;;;;;;;;;;;;;5137017;27;19960;-73
2022/04/25 03:58:50;;;;;;;;;;;;;;;;;;5137044;27;19934;-74
2022/04/25 04:01:15;;;;;;;;;;;;;;;;;;5136723;27;19987;-73
2022/04/25 04:03:40;;;;;;;;;;;;;;;;;;5136760;27;20332;-73
2022/04/25 04:06:07;;;;;;;;;;;;;;;;;;5118781;27;19911;-73
2022/04/25 04:08:33;;;;;;;;;;;;;;;;;;5118573;27;19912;-73
2022/04/25 04:10:58;;;;;;;;;;;;;;;;;;5136575;27;20266;-73
2022/04/25 04:13:26;;;;;;;;;;;;;;;;;;5136701;27;19922;-72
2022/04/25 04:15:56;;;;;;;;;;;;;;;;;;5118269;27;19911;-73
2022/04/25 04:18:21;;;;;;;;;;;;;;;;;;5136379;27;19912;-72
2022/04/25 04:20:46;;;;;;;;;;;;;;;;;;5136414;27;20248;-73
2022/04/25 04:23:11;;;;;;;;;;;;;;;;;;5135995;27;19918;-73
2022/04/25 04:25:36;;;;;;;;;;;;;;;;;;5136032;27;19915;-73
2022/04/25 04:28:02;;;;;;;;;;;;;;;;;;5136171;27;20011;-72
2022/04/25 04:30:27;;;;;;;;;;;;;;;;;;5136970;27;20013;-73
2022/04/25 04:32:52;;;;;;;;;;;;;;;;;;5136235;27;19923;-74
2022/04/25 04:36:17;;;;;;;;;;;;;;;;;;5136173;27;20344;-74
2022/04/25 04:38:04;;;;;;;;;;;;;;;;;;5129441;27;19922;-74
2022/04/25 04:40:30;;;;;;;;;;;;;;;;;;5136232;28;19916;-74
2022/04/25 04:42:57;;;;;;;;;;;;;;;;;;5117840;28;19926;-73
2022/04/25 04:45:23;;;;;;;;;;;;;;;;;;5136007;28;19911;-73
2022/04/25 04:47:50;;;;;;;;;;;;;;;;;;5118527;28;19911;-73
2022/04/25 04:50:16;;;;;;;;;;;;;;;;;;5118401;28;19912;-73
2022/04/25 04:52:51;;;;;;;;;;;;;;;;;;5136192;28;20285;-73
2022/04/25 04:55:18;;;;;;;;;;;;;;;;;;5136513;28;19911;-73
2022/04/25 04:57:44;;;;;;;;;;;;;;;;;;5136037;28;19919;-73
2022/04/25 05:00:10;;;;;;;;;;;;;;;;;;5118407;28;19912;-73
2022/04/25 05:02:35;;;;;;;;;;;;;;;;;;5135910;28;19980;-73
2022/04/25 05:05:01;;;;;;;;;;;;;;;;;;5135876;28;20060;-73
2022/04/25 05:07:26;;;;;;;;;;;;;;;;;;5135891;28;19968;-73
2022/04/25 05:09:52;;;;;;;;;;;;;;;;;;5136122;28;19922;-73
2022/04/25 05:12:18;;;;;;;;;;;;;;;;;;5137029;28;20010;-73
2022/04/25 05:14:43;;;;;;;;;;;;;;;;;;5118048;28;19943;-73
2022/04/25 05:17:09;;;;;;;;;;;;;;;;;;5135583;28;20366;-73
2022/04/25 05:19:34;;;;;;;;;;;;;;;;;;5135928;28;19908;-73
2022/04/25 05:21:59;;;;;;;;;;;;;;;;;;5136189;28;19916;-74
2022/04/25 05:24:27;;;;;;;;;;;;;;;;;;5136759;28;19916;-73
2022/04/25 05:26:52;;;;;;;;;;;;;;;;;;5135854;28;19911;-72
2022/04/25 05:29:20;;;;;;;;;;;;;;;;;;5135858;28;19911;-72
2022/04/25 05:31:45;;;;;;;;;;;;;;;;;;5135778;28;19998;-72
2022/04/25 05:34:14;;;;;;;;;;;;;;;;;;5135498;28;20366;-71
2022/04/25 05:36:42;;;;;;;;;;;;;;;;;;5139100;27;20344;-72
2022/04/25 05:39:07;;;;;;;;;;;;;;;;;;5121348;27;19912;-72
2022/04/25 05:41:35;;;;;;;;;;;;;;;;;;5139313;27;19926;-72
2022/04/25 05:44:03;;;;;;;;;;;;;;;;;;5121282;27;19994;-72
2022/04/25 05:46:28;;;;;;;;;;;;;;;;;;5121668;27;19912;-74
2022/04/25 05:54:21;;;;;;;;;;;;;;;;;;5139027;27;19922;-73
2022/04/25 05:56:46;;;;;;;;;;;;;;;;;;5139230;27;20248;-73
2022/04/25 05:59:12;;;;;;;;;;;;;;;;;;5138957;27;20339;-73
2022/04/25 06:01:37;;;;;;;;;;;;;;;;;;5139364;27;19920;-74
2022/04/25 06:04:02;;;;;;;;;;;;;;;;;;5139046;27;19911;-73
2022/04/25 06:06:27;;;;;;;;;;;;;;;;;;5138812;27;20347;-73
2022/04/25 06:08:53;;;;;;;;;;;;;;;;;;5138897;27;20256;-72
2022/04/25 06:11:18;;;;;;;;;;;;;;;;;;5138691;27;19916;-73
2022/04/25 06:13:44;;;;;;;;;;;;;;;;;;5139601;27;19922;-73
2022/04/25 06:16:10;;;;;;;;;;;;;;;;;;5120846;27;20007;-73
2022/04/25 06:18:35;;;;;;;;;;;;;;;;;;5138530;27;20286;-73
2022/04/25 06:21:00;;;;;;;;;;;;;;;;;;5138454;27;20338;-73
2022/04/25 06:23:26;;;;;;;;;;;;;;;;;;5138398;27;19968;-73
2022/04/25 06:25:51;;;;;;;;;;;;;;;;;;5120425;27;19968;-73
2022/04/25 06:28:18;;;;;;;;;;;;;;;;;;5138388;27;20336;-73
2022/04/25 06:30:43;;;;;;;;;;;;;;;;;;5138367;27;19919;-73
2022/04/25 06:33:11;;;;;;;;;;;;;;;;;;5138426;27;20256;-72
2022/04/25 06:35:37;;;;;;;;;;;;;;;;;;5138261;27;19922;-72
2022/04/25 06:38:02;;;;;;;;;;;;;;;;;;5120602;27;19911;-72
2022/04/25 06:40:27;;;;;;;;;;;;;;;;;;5138260;27;20328;-72
2022/04/25 06:42:53;;;;;;;;;;;;;;;;;;5138132;27;19916;-72
2022/04/25 06:45:19;;;;;;;;;;;;;;;;;;5138450;27;19911;-72
2022/04/25 06:47:44;;;;;;;;;;;;;;;;;;5137795;27;20471;-72
2022/04/25 06:50:09;;;;;;;;;;;;;;;;;;5138289;27;19912;-73
2022/04/25 06:52:37;;;;;;;;;;;;;;;;;;5119931;27;19911;-73
2022/04/25 06:55:04;;;;;;;;;;;;;;;;;;5138172;27;19930;-72
2022/04/25 06:57:30;;;;;;;;;;;;;;;;;;5137813;27;19923;-72
2022/04/25 06:59:55;;;;;;;;;;;;;;;;;;5119864;27;19911;-72
2022/04/25 07:02:20;;;;;;;;;;;;;;;;;;5137588;27;19923;-74
2022/04/25 07:04:46;;;;;;;;;;;;;;;;;;5138037;27;19919;-73
2022/04/25 07:07:11;;;;;;;;;;;;;;;;;;5137986;27;19911;-72
2022/04/25 07:09:36;;;;;;;;;;;;;;;;;;5119488;27;19998;-72
2022/04/25 07:12:02;;;;;;;;;;;;;;;;;;5137351;27;20260;-72
2022/04/25 07:14:28;;;;;;;;;;;;;;;;;;5137479;27;20255;-72
2022/04/25 07:16:54;;;;;;;;;;;;;;;;;;5119822;27;19918;-73
2022/04/25 07:19:21;;;;;;;;;;;;;;;;;;5119756;27;19911;-72
2022/04/25 07:29:59;;;;;;;;;;;;;;;;;;5137311;27;19960;-72
2022/04/25 07:32:24;;;;;;;;;;;;;;;;;;5137306;27;20336;-72
2022/04/25 07:34:52;;;;;;;;;;;;;;;;;;5128453;27;19911;-71
2022/04/25 07:37:18;;;;;;;;;;;;;;;;;;5119154;27;19941;-72
2022/04/25 07:39:43;;;;;;;;;;;;;;;;;;5119014;27;20328;-72
2022/04/25 07:42:08;;;;;;;;;;;;;;;;;;5101936;27;19915;-72
2022/04/25 07:44:34;;;;;;;;;;;;;;;;;;5136838;27;20337;-73
2022/04/25 07:46:59;;;;;;;;;;;;;;;;;;5137239;27;19922;-75
2022/04/25 07:49:30;;;;;;;;;;;;;;;;;;5136836;27;20006;-77
2022/04/25 07:51:55;;;;;;;;;;;;;;;;;;5136717;27;20009;-75
2022/04/25 07:54:21;;;;;;;;;;;;;;;;;;5119192;27;19911;-74
2022/04/25 07:56:52;;;;;;;;;;;;;;;;;;5118674;27;19919;-74
2022/04/25 07:59:21;;;;;;;;;;;;;;;;;;5135702;27;19972;-75
2022/04/25 08:01:46;;;;;;;;;;;;;;;;;;5136852;27;20351;-74
2022/04/25 08:04:11;;;;;;;;;;;;;;;;;;5118760;27;19912;-74
2022/04/25 08:06:37;;;;;;;;;;;;;;;;;;5118605;27;19966;-74
2022/04/25 08:09:05;;;;;;;;;;;;;;;;;;5118775;27;19971;-73
2022/04/25 08:11:30;;;;;;;;;;;;;;;;;;5136256;27;19923;-73
2022/04/25 08:19:26;;;;;;;;;;;;;;;;;;5121505;27;19930;-74
2022/04/25 08:21:52;;;;;;;;;;;;;;;;;;5136495;27;20383;-74
2022/04/25 08:24:18;;;;;;;;;;;;;;;;;;5136176;27;20337;-75
2022/04/25 08:26:43;;;;;;;;;;;;;;;;;;5136914;27;19916;-75
2022/04/25 08:29:08;;;;;;;;;;;;;;;;;;5136101;27;19912;-75
2022/04/25 08:31:34;;;;;;;;;;;;;;;;;;5118218;28;19912;-74
2022/04/25 08:34:01;;;;;;;;;;;;;;;;;;5136362;27;19922;-75
2022/04/25 08:36:26;;;;;;;;;;;;;;;;;;5118661;28;19912;-74
2022/04/25 08:38:52;;;;;;;;;;;;;;;;;;5136054;27;19923;-74
2022/04/25 08:41:20;;;;;;;;;;;;;;;;;;5135925;28;19915;-75
2022/04/25 08:43:45;;;;;;;;;;;;;;;;;;5118669;28;19920;-74
2022/04/25 08:46:11;;;;;;;;;;;;;;;;;;5118213;28;19968;-74
2022/04/25 08:48:41;;;;;;;;;;;;;;;;;;5117916;28;19911;-75
2022/04/25 08:51:07;;;;;;;;;;;;;;;;;;5136031;28;19994;-75
2022/04/25 08:53:33;;;;;;;;;;;;;;;;;;5135838;28;19954;-75
2022/04/25 08:56:04;;;;;;;;;;;;;;;;;;5117961;28;19911;-75
2022/04/25 08:58:36;;;;;;;;;;;;;;;;;;5136142;28;19911;-75
2022/04/25 09:01:01;;;;;;;;;;;;;;;;;;5136170;28;19922;-74
2022/04/25 09:03:28;;;;;;;;;;;;;;;;;;5117948;28;19911;-75
2022/04/25 09:05:55;;;;;;;;;;;;;;;;;;5135714;28;19911;-75
2022/04/25 09:08:20;;;;;;;;;;;;;;;;;;5135853;28;19912;-75
2022/04/25 09:10:46;;;;;;;;;;;;;;;;;;5120191;27;20249;-74
2022/04/25 09:13:11;;;;;;;;;;;;;;;;;;5104930;27;19994;-74
2022/04/25 09:15:36;;;;;;;;;;;;;;;;;;5140157;27;19911;-74
2022/04/25 09:18:08;;;;;;;;;;;;;;;;;;5139911;27;20256;-76
2022/04/25 09:23:36;;;;;;;;;;;;;;;;;;5139667;27;20264;-75
2022/04/25 09:26:29;;;;;;;;;;;;;;;;;;5139573;27;19915;-76
2022/04/25 09:28:55;;;;;;;;;;;;;;;;;;5136219;27;19911;-74
2022/04/25 09:31:27;;;;;;;;;;;;;;;;;;5139588;27;20355;-74
2022/04/25 09:33:53;;;;;;;;;;;;;;;;;;5121417;27;19922;-74
2022/04/25 09:36:18;;;;;;;;;;;;;;;;;;5139558;27;19911;-74
2022/04/25 09:38:44;;;;;;;;;;;;;;;;;;5139443;27;19912;-75
2022/04/25 09:41:10;;;;;;;;;;;;;;;;;;5104240;27;20340;-75
2022/04/25 09:43:41;;;;;;;;;;;;;;;;;;5139363;27;19911;-75
2022/04/25 09:46:09;;;;;;;;;;;;;;;;;;5121744;27;20396;-75
2022/04/25 09:48:35;;;;;;;;;;;;;;;;;;5139862;27;20341;-75
2022/04/25 09:51:05;;;;;;;;;;;;;;;;;;5139259;27;19915;-74
2022/04/25 09:53:46;;;;;;;;;;;;;;;;;;5121162;27;19912;-75
2022/04/25 09:56:13;;;;;;;;;;;;;;;;;;5139076;27;20378;-76
2022/04/25 09:58:40;;;;;;;;;;;;;;;;;;5139156;27;19955;-74
2022/04/25 10:01:11;;;;;;;;;;;;;;;;;;5121382;27;19920;-75
2022/04/25 10:03:37;;;;;;;;;;;;;;;;;;5139363;27;20343;-74
2022/04/25 10:06:03;;;;;;;;;;;;;;;;;;5121060;27;19915;-74
2022/04/25 10:08:28;;;;;;;;;;;;;;;;;;5139248;27;19925;-74
2022/04/25 10:10:53;;;;;;;;;;;;;;;;;;5138925;27;19975;-74
2022/04/25 10:13:21;;;;;;;;;;;;;;;;;;5120923;27;19990;-74
2022/04/25 10:15:49;;;;;;;;;;;;;;;;;;5121148;27;20248;-75
2022/04/25 10:18:14;;;;;;;;;;;;;;;;;;5138880;27;19911;-74
2022/04/25 10:20:42;;;;;;;;;;;;;;;;;;5138969;27;19922;-75
2022/04/25 10:23:09;;;;;;;;;;;;;;;;;;5119860;27;20400;-75
2022/04/25 10:25:36;;;;;;;;;;;;;;;;;;5138480;27;19972;-75
2022/04/25 10:28:02;;;;;;;;;;;;;;;;;;5120795;27;19927;-75
2022/04/25 10:30:35;;;;;;;;;;;;;;;;;;5120429;27;19912;-75
2022/04/25 10:33:20;;;;;;;;;;;;;;;;;;5121183;27;19922;-75
2022/04/25 10:35:46;;;;;;;;;;;;;;;;;;5138901;27;20013;-74
2022/04/25 10:44:10;;;;;;;;;;;;;;;;;;5122986;27;19922;-76
2022/04/25 10:46:54;;;;;;;;;;;;;;;;;;5138386;27;19911;-76
2022/04/25 10:49:27;;;;;;;;;;;;;;;;;;5138296;27;19912;-78
2022/04/25 10:51:57;;;;;;;;;;;;;;;;;;5138109;27;20002;-76
2022/04/25 10:54:27;;;;;;;;;;;;;;;;;;5103195;27;20356;-77
2022/04/25 10:57:11;;;;;;;;;;;;;;;;;;5112456;27;20236;-76
2022/04/25 10:59:37;;;;;;;;;;;;;;;;;;5138243;27;19918;-76
2022/04/25 11:02:19;;;;;;;;;;;;;;;;;;5102868;27;19926;-77
2022/04/25 11:04:44;;;;;;;;;;;;;;;;;;5137837;27;19926;-76
2022/04/25 11:07:21;;;;;;;;;;;;;;;;;;5137985;27;19915;-76
2022/04/25 11:09:46;;;;;;;;;;;;;;;;;;5137921;27;20008;-76
2022/04/25 11:12:11;;;;;;;;;;;;;;;;;;5137998;27;20311;-77
2022/04/25 11:14:37;;;;;;;;;;;;;;;;;;5137990;27;19912;-76
2022/04/25 11:17:12;;;;;;;;;;;;;;;;;;5137552;27;19922;-77
2022/04/25 11:19:51;;;;;;;;;;;;;;;;;;5119489;27;20388;-76
2022/04/25 11:22:47;;;;;;;;;;;;;;;;;;5120024;27;20367;-76
2022/04/25 11:25:25;;;;;;;;;;;;;;;;;;5119259;27;19927;-77
2022/04/25 11:28:02;;;;;;;;;;;;;;;;;;5120016;27;19911;-77
2022/04/25 11:30:27;;;;;;;;;;;;;;;;;;5137567;27;19968;-77
2022/04/25 11:32:52;;;;;;;;;;;;;;;;;;5102102;27;20321;-76
2022/04/25 11:35:22;;;;;;;;;;;;;;;;;;5119850;27;19911;-77
2022/04/25 11:37:49;;;;;;;;;;;;;;;;;;5137214;27;20348;-78
2022/04/25 11:40:14;;;;;;;;;;;;;;;;;;5119209;27;19934;-77
2022/04/25 11:42:40;;;;;;;;;;;;;;;;;;5119016;27;20340;-77
2022/04/25 11:45:05;;;;;;;;;;;;;;;;;;5136968;27;20319;-77
2022/04/25 11:47:31;;;;;;;;;;;;;;;;;;5119408;27;20332;-77
2022/04/25 11:49:57;;;;;;;;;;;;;;;;;;5118821;27;20332;-76
2022/04/25 11:52:22;;;;;;;;;;;;;;;;;;5118821;27;19911;-77
2022/04/25 11:54:47;;;;;;;;;;;;;;;;;;5119147;27;19986;-77
2022/04/25 12:26:48;;;;;;;;;;;;;;;;;;5033605;28;19956;-82
2022/04/25 12:29:13;;;;;;;;;;;;;;;;;;5017218;28;19952;-82
2022/04/25 12:31:47;;;;;;;;;;;;;;;;;;5033842;28;19913;-82
2022/04/25 12:34:13;;;;;;;;;;;;;;;;;;5018522;28;19916;-81
2022/04/25 12:36:39;;;;;;;;;;;;;;;;;;5034081;28;19913;-80
2022/04/25 12:39:12;;;;;;;;;;;;;;;;;;5033883;28;20313;-80
2022/04/25 12:41:38;;;;;;;;;;;;;;;;;;5033843;28;19952;-80
2022/04/25 12:44:09;;;;;;;;;;;;;;;;;;5017317;28;20309;-79
2022/04/25 12:46:37;;;;;;;;;;;;;;;;;;5034086;28;19942;-81
2022/04/25 12:49:06;;;;;;;;;;;;;;;;;;5033658;28;19913;-82
2022/04/25 12:51:34;;;;;;;;;;;;;;;;;;5000636;28;19917;-82
2022/04/25 12:54:00;;;;;;;;;;;;;;;;;;5033644;28;19996;-81
2022/04/25 12:56:26;;;;;;;;;;;;;;;;;;5000930;28;20013;-78
2022/04/25 12:58:52;;;;;;;;;;;;;;;;;;5017082;28;20238;-81
2022/04/25 13:01:27;;;;;;;;;;;;;;;;;;5061941;28;20261;-80
2022/04/25 13:04:19;;;;;;;;;;;;;;;;;;5107657;28;19950;-78
2022/04/25 13:06:44;;;;;;;;;;;;;;;;;;5115312;28;20003;-78
2022/04/25 13:09:10;;;;;;;;;;;;;;;;;;5115164;28;19981;-78
2022/04/25 13:11:38;;;;;;;;;;;;;;;;;;5115360;28;19918;-78
2022/04/25 13:14:06;;;;;;;;;;;;;;;;;;5115504;28;19916;-78
2022/04/25 13:16:32;;;;;;;;;;;;;;;;;;5115671;28;20014;-79
2022/04/25 13:18:57;;;;;;;;;;;;;;;;;;5115321;28;19951;-79
2022/04/25 13:21:25;;;;;;;;;;;;;;;;;;5080266;28;19915;-77
2022/04/25 13:26:53;;;;;;;;;;;;;;;;;;5078206;28;19974;-78
2022/04/25 13:29:18;;;;;;;;;;;;;;;;;;5076286;28;20341;-77
2022/04/25 13:31:43;;;;;;;;;;;;;;;;;;5076203;28;20348;-78
2022/04/25 13:34:09;;;;;;;;;;;;;;;;;;5076223;28;20014;-78
2022/04/25 13:36:34;;;;;;;;;;;;;;;;;;5076283;28;19961;-77
2022/04/25 13:39:02;;;;;;;;;;;;;;;;;;5076096;28;19923;-75
2022/04/25 13:41:30;;;;;;;;;;;;;;;;;;5075946;28;19916;-76
2022/04/25 13:43:55;;;;;;;;;;;;;;;;;;5092949;28;19925;-76
2022/04/25 13:46:23;;;;;;;;;;;;;;;;;;5092936;28;19916;-76
2022/04/25 13:48:48;;;;;;;;;;;;;;;;;;5076473;28;20355;-76
2022/04/25 13:51:17;;;;;;;;;;;;;;;;;;5092881;28;19912;-76
2022/04/25 13:53:45;;;;;;;;;;;;;;;;;;5078154;28;19973;-77
2022/04/25 13:56:10;;;;;;;;;;;;;;;;;;5117299;28;19911;-76
2022/04/25 13:58:56;;;;;;;;;;;;;;;;;;5120725;27;19912;-76
2022/04/25 14:01:22;;;;;;;;;;;;;;;;;;5123528;27;19927;-76
2022/04/25 14:03:49;;;;;;;;;;;;;;;;;;5120923;27;19911;-76
2022/04/25 14:06:14;;;;;;;;;;;;;;;;;;5121228;27;20244;-77
2022/04/25 14:08:40;;;;;;;;;;;;;;;;;;5120790;27;19911;-78
2022/04/25 14:11:05;;;;;;;;;;;;;;;;;;5139322;27;19911;-82
2022/04/25 14:13:48;;;;;;;;;;;;;;;;;;5104415;27;20416;-82
2022/04/25 14:16:13;;;;;;;;;;;;;;;;;;5105219;27;19911;-83
2022/04/25 14:18:39;;;;;;;;;;;;;;;;;;5122597;27;20293;-83
2022/04/25 14:21:06;;;;;;;;;;;;;;;;;;5104471;27;19915;-80
2022/04/25 14:23:34;;;;;;;;;;;;;;;;;;5120694;27;19950;-76
2022/04/25 14:26:03;;;;;;;;;;;;;;;;;;5120331;27;19960;-79
2022/04/25 14:28:36;;;;;;;;;;;;;;;;;;5100682;28;20252;-79
2022/04/25 14:31:01;;;;;;;;;;;;;;;;;;5117169;28;19916;-77
2022/04/25 14:33:28;;;;;;;;;;;;;;;;;;5117568;28;19911;-79
2022/04/25 14:35:54;;;;;;;;;;;;;;;;;;5116669;28;20336;-78
2022/04/25 14:38:22;;;;;;;;;;;;;;;;;;5099966;28;19919;-79
2022/04/25 14:40:51;;;;;;;;;;;;;;;;;;5116356;28;19912;-79
2022/04/25 14:43:16;;;;;;;;;;;;;;;;;;5116830;28;19965;-79
2022/04/25 14:45:43;;;;;;;;;;;;;;;;;;5117510;28;20268;-79
2022/04/25 14:48:13;;;;;;;;;;;;;;;;;;5099777;28;19912;-78
2022/04/25 14:56:08;;;;;;;;;;;;;;;;;;5116628;28;19919;-78
2022/04/25 14:58:34;;;;;;;;;;;;;;;;;;5117226;28;20254;-76
2022/04/25 15:01:01;;;;;;;;;;;;;;;;;;5116278;28;19919;-78
2022/04/25 15:03:26;;;;;;;;;;;;;;;;;;5116281;28;19927;-81
2022/04/25 15:05:54;;;;;;;;;;;;;;;;;;5116279;28;19911;-79
2022/04/25 15:08:21;;;;;;;;;;;;;;;;;;5116009;28;20286;-77
2022/04/25 15:10:47;;;;;;;;;;;;;;;;;;5120826;28;19923;-77
2022/04/25 15:13:13;;;;;;;;;;;;;;;;;;5118778;28;19912;-76
2022/04/25 15:15:43;;;;;;;;;;;;;;;;;;5116517;28;19984;-77
2022/04/25 15:18:08;;;;;;;;;;;;;;;;;;5116932;28;19912;-77
2022/04/25 15:20:34;;;;;;;;;;;;;;;;;;5098918;28;19918;-78
2022/04/25 15:23:03;;;;;;;;;;;;;;;;;;5117087;27;19920;-79
2022/04/25 15:25:28;;;;;;;;;;;;;;;;;;5116718;28;19912;-79
2022/04/25 15:27:53;;;;;;;;;;;;;;;;;;5130623;27;19945;-80
2022/04/25 15:30:18;;;;;;;;;;;;;;;;;;5119085;27;20002;-80
2022/04/25 15:32:44;;;;;;;;;;;;;;;;;;5136953;27;19915;-80
2022/04/25 15:35:12;;;;;;;;;;;;;;;;;;5101981;27;20004;-79
2022/04/25 15:37:40;;;;;;;;;;;;;;;;;;5118724;27;19911;-79
2022/04/25 15:40:05;;;;;;;;;;;;;;;;;;5102397;27;19942;-80
2022/04/25 15:42:32;;;;;;;;;;;;;;;;;;5137113;27;19966;-80
2022/04/25 15:44:58;;;;;;;;;;;;;;;;;;5121172;27;19911;-79
2022/04/25 15:50:26;;;;;;;;;;;;;;;;;;5138338;27;19922;-80
2022/04/25 15:52:54;;;;;;;;;;;;;;;;;;5138179;27;19912;-79
2022/04/25 15:58:22;;;;;;;;;;;;;;;;;;5138376;27;20343;-80
2022/04/25 16:00:49;;;;;;;;;;;;;;;;;;5102899;27;19912;-80
2022/04/25 16:03:15;;;;;;;;;;;;;;;;;;5103074;27;20011;-79
2022/04/25 16:05:41;;;;;;;;;;;;;;;;;;5118640;27;19943;-79
2022/04/25 16:08:15;;;;;;;;;;;;;;;;;;5136933;27;19972;-79
2022/04/25 16:10:40;;;;;;;;;;;;;;;;;;5119717;27;19915;-79
2022/04/25 16:13:08;;;;;;;;;;;;;;;;;;5118555;27;19918;-80
2022/04/25 16:15:34;;;;;;;;;;;;;;;;;;5119198;27;20319;-79
2022/04/25 16:18:00;;;;;;;;;;;;;;;;;;5136477;27;19939;-79
2022/04/25 16:20:26;;;;;;;;;;;;;;;;;;5135605;27;19983;-79
2022/04/25 16:22:56;;;;;;;;;;;;;;;;;;5118594;27;20019;-79
2022/04/25 16:25:23;;;;;;;;;;;;;;;;;;5137035;27;20309;-79
2022/04/25 16:31:23;;;;;;;;;;;;;;;;;;5137106;27;19975;-80
2022/04/25 16:33:48;;;;;;;;;;;;;;;;;;5136679;27;19912;-80
2022/04/25 16:36:22;;;;;;;;;;;;;;;;;;5118652;27;19921;-80
2022/04/25 16:38:50;;;;;;;;;;;;;;;;;;5136772;27;19911;-80
2022/04/25 16:41:15;;;;;;;;;;;;;;;;;;5135845;27;20239;-79
2022/04/25 16:43:40;;;;;;;;;;;;;;;;;;5136344;27;20017;-79
2022/04/25 16:46:05;;;;;;;;;;;;;;;;;;5118450;28;20336;-80
2022/04/25 16:48:33;;;;;;;;;;;;;;;;;;5118106;28;19911;-78
2022/04/25 16:51:01;;;;;;;;;;;;;;;;;;5118777;28;19918;-79
2022/04/25 16:53:28;;;;;;;;;;;;;;;;;;5136379;28;19911;-79
2022/04/25 16:58:56;;;;;;;;;;;;;;;;;;5136272;28;20019;-79
2022/04/25 17:01:33;;;;;;;;;;;;;;;;;;5101038;28;20356;-77
2022/04/25 17:03:58;;;;;;;;;;;;;;;;;;5119007;28;19958;-78
2022/04/25 17:06:25;;;;;;;;;;;;;;;;;;5101330;28;19912;-80
2022/04/25 17:08:50;;;;;;;;;;;;;;;;;;5118103;28;19984;-78
2022/04/25 17:11:16;;;;;;;;;;;;;;;;;;5118363;28;19923;-78
2022/04/25 17:13:41;;;;;;;;;;;;;;;;;;5136227;28;19919;-78
2022/04/25 17:16:06;;;;;;;;;;;;;;;;;;5117916;28;19922;-78
2022/04/25 17:18:31;;;;;;;;;;;;;;;;;;5135951;28;19919;-80
2022/04/25 17:20:59;;;;;;;;;;;;;;;;;;5100631;28;19923;-79
2022/04/25 17:23:25;;;;;;;;;;;;;;;;;;5118096;28;19916;-79
2022/04/25 17:25:50;;;;;;;;;;;;;;;;;;5135675;28;19923;-79
2022/04/25 17:28:15;;;;;;;;;;;;;;;;;;5117799;28;20292;-79
2022/04/25 17:30:40;;;;;;;;;;;;;;;;;;5101177;27;19915;-79
2022/04/25 17:35:52;;;;;;;;;;;;;;;;;;5125569;27;19918;-79
